createdAt,value
2022-11-16T00:02:18.736Z,6.20
2022-11-16T00:04:45.587Z,6.20
2022-11-16T00:07:12.585Z,6.20
2022-11-16T00:09:39.628Z,6.10
2022-11-16T00:12:07.042Z,6.10
2022-11-16T00:14:34.587Z,6.00
2022-11-16T00:17:01.533Z,6.00
2022-11-16T00:19:28.628Z,6.00
2022-11-16T00:21:55.639Z,6.00
2022-11-16T00:24:22.779Z,5.90
2022-11-16T00:26:50.231Z,5.90
2022-11-16T00:29:17.937Z,5.80
2022-11-16T00:31:45.307Z,5.80
2022-11-16T00:34:12.257Z,5.80
2022-11-16T00:36:39.242Z,5.80
2022-11-16T00:39:06.540Z,5.70
2022-11-16T00:41:33.504Z,5.80
2022-11-16T00:44:00.410Z,5.80
2022-11-16T00:46:27.693Z,5.80
2022-11-16T00:48:54.583Z,5.70
2022-11-16T00:51:21.558Z,5.80
2022-11-16T00:53:48.606Z,5.80
2022-11-16T00:56:15.580Z,5.70
2022-11-16T00:58:44.147Z,5.70
2022-11-16T01:01:11.942Z,5.70
2022-11-16T01:03:39.038Z,5.70
2022-11-16T01:06:07.981Z,5.70
2022-11-16T01:08:35.902Z,5.60
2022-11-16T01:11:22.598Z,5.60
2022-11-16T01:13:49.536Z,5.50
2022-11-16T01:16:16.910Z,5.40
2022-11-16T01:18:44.261Z,5.40
2022-11-16T01:21:11.145Z,5.30
2022-11-16T01:23:38.669Z,5.30
2022-11-16T01:26:05.617Z,5.20
2022-11-16T01:28:35.595Z,5.20
2022-11-16T01:31:03.189Z,5.10
2022-11-16T01:33:33.503Z,5.10
2022-11-16T01:36:00.603Z,5.10
2022-11-16T01:38:30.037Z,5.10
2022-11-16T01:40:57.537Z,5.10
2022-11-16T01:43:25.895Z,5.00
2022-11-16T01:45:57.868Z,5.00
2022-11-16T01:48:26.186Z,5.00
2022-11-16T01:50:53.936Z,5.00
2022-11-16T01:53:20.886Z,5.00
2022-11-16T01:55:52.050Z,5.10
2022-11-16T01:58:45.971Z,5.20
2022-11-16T02:01:23.405Z,5.20
2022-11-16T02:03:54.907Z,5.30
2022-11-16T02:06:27.795Z,5.30
2022-11-16T02:09:41.034Z,5.30
2022-11-16T02:12:08.078Z,5.40
2022-11-16T02:14:38.097Z,5.30
2022-11-16T02:17:14.070Z,5.30
2022-11-16T02:19:47.818Z,5.40
2022-11-16T02:22:20.573Z,5.40
2022-11-16T02:24:52.123Z,5.50
2022-11-16T02:27:31.057Z,5.50
2022-11-16T02:29:58.146Z,5.60
2022-11-16T02:32:25.108Z,5.70
2022-11-16T02:34:56.954Z,5.70
2022-11-16T02:37:24.644Z,5.80
2022-11-16T02:39:53.222Z,5.80
2022-11-16T02:42:24.833Z,5.90
2022-11-16T02:44:51.925Z,5.90
2022-11-16T02:47:20.744Z,6.00
2022-11-16T02:49:50.624Z,6.00
2022-11-16T02:52:17.893Z,6.10
2022-11-16T02:54:44.825Z,6.10
2022-11-16T02:57:23.480Z,6.10
2022-11-16T02:59:50.904Z,6.10
2022-11-16T03:02:48.270Z,6.10
2022-11-16T03:05:16.333Z,6.20
2022-11-16T03:07:53.853Z,6.20
2022-11-16T03:10:39.712Z,6.20
2022-11-16T03:13:08.571Z,6.20
2022-11-16T03:15:36.584Z,6.30
2022-11-16T03:18:03.724Z,6.30
2022-11-16T03:20:30.673Z,6.30
2022-11-16T03:22:58.983Z,6.30
2022-11-16T03:25:26.655Z,6.40
2022-11-16T03:27:59.707Z,6.40
2022-11-16T03:30:27.776Z,6.40
2022-11-16T03:32:55.857Z,6.50
2022-11-16T03:35:27.198Z,6.50
2022-11-16T03:37:54.349Z,6.50
2022-11-16T03:40:22.775Z,6.50
2022-11-16T03:42:50.288Z,6.60
2022-11-16T03:45:17.866Z,6.60
2022-11-16T03:47:44.848Z,6.60
2022-11-16T03:50:12.202Z,6.60
2022-11-16T03:52:40.074Z,6.60
2022-11-16T03:55:07.451Z,6.60
2022-11-16T03:57:35.151Z,6.70
2022-11-16T04:00:02.905Z,6.70
2022-11-16T04:02:40.190Z,6.70
2022-11-16T04:05:27.832Z,6.70
2022-11-16T04:08:13.197Z,6.70
2022-11-16T04:10:58.701Z,6.70
2022-11-16T04:13:44.989Z,6.70
2022-11-16T04:16:30.661Z,6.70
2022-11-16T04:19:18.085Z,6.70
2022-11-16T04:22:04.129Z,6.70
2022-11-16T04:24:35.533Z,6.70
2022-11-16T04:27:21.871Z,6.70
2022-11-16T04:29:49.078Z,6.70
2022-11-16T04:32:34.766Z,6.80
2022-11-16T04:35:20.454Z,6.70
2022-11-16T04:37:50.696Z,6.70
2022-11-16T04:40:23.823Z,6.70
2022-11-16T04:43:00.293Z,6.60
2022-11-16T04:45:48.493Z,6.60
2022-11-16T04:48:18.716Z,6.70
2022-11-16T04:50:46.016Z,6.60
2022-11-16T04:53:13.102Z,6.60
2022-11-16T04:55:46.322Z,6.60
2022-11-16T04:58:14.392Z,6.60
2022-11-16T05:00:41.375Z,6.60
2022-11-16T05:03:09.749Z,6.60
2022-11-16T05:05:36.641Z,6.60
2022-11-16T05:08:04.619Z,6.50
2022-11-16T05:10:32.933Z,6.50
2022-11-16T05:12:59.950Z,6.60
2022-11-16T05:15:28.326Z,6.60
2022-11-16T05:17:58.078Z,6.60
2022-11-16T05:20:44.421Z,6.60
2022-11-16T05:23:32.059Z,6.70
2022-11-16T05:26:04.324Z,6.60
2022-11-16T05:28:31.469Z,6.70
2022-11-16T05:30:58.677Z,6.70
2022-11-16T05:33:27.977Z,6.70
2022-11-16T05:35:55.038Z,6.80
2022-11-16T05:38:22.545Z,6.80
2022-11-16T05:40:53.576Z,6.80
2022-11-16T05:43:21.048Z,6.80
2022-11-16T05:45:55.673Z,6.90
2022-11-16T05:48:22.742Z,6.90
2022-11-16T05:50:49.980Z,6.90
2022-11-16T05:53:23.461Z,6.90
2022-11-16T05:55:50.751Z,6.90
2022-11-16T05:58:19.105Z,6.90
2022-11-16T06:00:47.382Z,6.90
2022-11-16T06:03:15.974Z,7.00
2022-11-16T06:05:43.114Z,7.00
2022-11-16T06:08:12.975Z,7.00
2022-11-16T06:10:39.945Z,7.00
2022-11-16T06:13:07.763Z,7.10
2022-11-16T06:15:36.827Z,7.10
2022-11-16T06:18:03.831Z,7.10
2022-11-16T06:20:30.917Z,7.10
2022-11-16T06:22:58.077Z,7.10
2022-11-16T06:25:25.226Z,7.10
2022-11-16T06:27:52.232Z,7.10
2022-11-16T06:30:19.950Z,7.10
2022-11-16T06:32:46.941Z,7.10
2022-11-16T06:35:14.765Z,7.10
2022-11-16T06:37:42.871Z,7.00
2022-11-16T06:40:10.073Z,7.10
2022-11-16T06:42:41.832Z,7.10
2022-11-16T06:45:10.927Z,7.10
2022-11-16T06:47:41.437Z,7.10
2022-11-16T06:50:08.599Z,7.10
2022-11-16T06:52:35.599Z,7.10
2022-11-16T06:55:03.210Z,7.20
2022-11-16T06:57:35.683Z,7.20
2022-11-16T07:00:04.273Z,7.10
2022-11-16T07:02:33.303Z,7.10
2022-11-16T07:05:03.839Z,7.10
2022-11-16T07:07:32.762Z,7.10
2022-11-16T07:09:59.795Z,7.10
2022-11-16T07:12:27.322Z,7.10
2022-11-16T07:14:56.710Z,7.10
2022-11-16T07:17:24.976Z,7.20
2022-11-16T07:19:52.979Z,7.20
2022-11-16T07:22:20.091Z,7.20
2022-11-16T07:24:48.800Z,7.20
2022-11-16T07:27:16.318Z,7.20
2022-11-16T07:29:46.089Z,7.20
2022-11-16T07:32:23.750Z,7.20
2022-11-16T07:35:08.717Z,7.20
2022-11-16T07:37:37.571Z,7.20
2022-11-16T07:40:05.545Z,7.20
2022-11-16T07:42:32.519Z,7.20
2022-11-16T07:45:07.867Z,7.20
2022-11-16T07:47:39.771Z,7.30
2022-11-16T07:50:11.032Z,7.30
2022-11-16T07:52:38.247Z,7.30
2022-11-16T07:55:15.681Z,7.40
2022-11-16T07:57:43.379Z,7.40
2022-11-16T08:00:10.957Z,7.40
2022-11-16T08:02:44.549Z,7.30
2022-11-16T08:05:17.539Z,7.30
2022-11-16T08:07:45.095Z,7.30
2022-11-16T08:10:12.585Z,7.30
2022-11-16T08:12:40.417Z,7.30
2022-11-16T08:15:08.029Z,7.30
2022-11-16T08:17:35.161Z,7.30
2022-11-16T08:20:03.997Z,7.30
2022-11-16T08:22:30.970Z,7.40
2022-11-16T08:24:57.935Z,7.40
2022-11-16T08:27:25.577Z,7.40
2022-11-16T08:29:56.228Z,7.40
2022-11-16T08:32:23.249Z,7.40
2022-11-16T08:34:50.244Z,7.40
2022-11-16T08:37:17.306Z,7.40
2022-11-16T08:39:45.517Z,7.40
2022-11-16T08:42:12.565Z,7.40
2022-11-16T08:44:43.492Z,7.40
2022-11-16T08:47:13.955Z,7.40
2022-11-16T08:49:55.731Z,7.40
2022-11-16T08:52:24.660Z,7.40
2022-11-16T08:54:53.368Z,7.40
2022-11-16T08:57:21.017Z,7.40
2022-11-16T08:59:52.936Z,7.40
2022-11-16T09:02:25.784Z,7.40
2022-11-16T09:04:53.209Z,7.40
2022-11-16T09:07:20.323Z,7.40
2022-11-16T09:09:47.283Z,7.40
2022-11-16T09:12:14.289Z,7.40
2022-11-16T09:14:41.290Z,7.40
2022-11-16T09:17:08.226Z,7.40
2022-11-16T09:19:35.172Z,7.30
2022-11-16T09:22:02.302Z,7.30
2022-11-16T09:24:29.187Z,7.40
2022-11-16T09:27:00.933Z,7.40
2022-11-16T09:29:27.887Z,7.40
2022-11-16T09:31:55.206Z,7.40
2022-11-16T09:34:22.155Z,7.40
2022-11-16T09:36:49.091Z,7.40
2022-11-16T09:39:32.108Z,7.40
2022-11-16T09:42:06.695Z,7.40
2022-11-16T09:44:45.326Z,7.40
2022-11-16T09:47:15.340Z,7.30
2022-11-16T09:50:04.023Z,7.40
2022-11-16T09:52:32.725Z,7.30
2022-11-16T09:54:59.922Z,7.30
2022-11-16T09:57:27.818Z,7.30
2022-11-16T09:59:56.632Z,7.30
2022-11-16T10:02:28.042Z,7.30
2022-11-16T10:04:59.223Z,7.30
2022-11-16T10:07:27.660Z,7.30
2022-11-16T10:09:54.996Z,7.30
2022-11-16T10:12:21.929Z,7.40
2022-11-16T10:14:51.941Z,7.40
2022-11-16T10:17:21.654Z,7.40
2022-11-16T10:20:07.231Z,7.40
2022-11-16T10:22:42.238Z,7.40
2022-11-16T10:25:16.244Z,7.40
2022-11-16T10:28:07.092Z,7.40
2022-11-16T10:30:34.456Z,7.50
2022-11-16T10:33:02.150Z,7.50
2022-11-16T10:35:31.025Z,7.50
2022-11-16T10:38:02.837Z,7.50
2022-11-16T10:40:30.514Z,7.50
2022-11-16T10:43:16.184Z,7.50
2022-11-16T10:45:45.945Z,7.50
2022-11-16T10:48:12.880Z,7.50
2022-11-16T10:50:41.161Z,7.50
2022-11-16T10:53:12.069Z,7.50
2022-11-16T10:55:39.007Z,7.60
2022-11-16T10:58:06.208Z,7.60
2022-11-16T11:00:43.291Z,7.60
2022-11-16T11:03:11.988Z,7.60
2022-11-16T11:05:54.247Z,7.60
2022-11-16T11:08:25.589Z,7.60
2022-11-16T11:11:01.888Z,7.60
2022-11-16T11:13:28.910Z,7.60
2022-11-16T11:16:12.858Z,7.60
2022-11-16T11:18:39.842Z,7.70
2022-11-16T11:21:19.562Z,7.70
2022-11-16T11:23:50.860Z,7.70
2022-11-16T11:26:29.364Z,7.70
2022-11-16T11:28:59.623Z,7.80
2022-11-16T11:31:33.552Z,7.70
2022-11-16T11:34:19.742Z,7.70
2022-11-16T11:36:48.514Z,7.70
2022-11-16T11:39:21.346Z,7.70
2022-11-16T11:42:06.485Z,7.60
2022-11-16T11:44:37.298Z,7.50
2022-11-16T11:50:16.759Z,7.40
2022-11-16T11:52:48.623Z,7.40
2022-11-16T11:55:16.180Z,7.40
2022-11-16T11:57:43.808Z,7.50
2022-11-16T12:00:14.460Z,7.50
2022-11-16T12:03:00.413Z,7.40
2022-11-16T12:05:27.394Z,7.50
2022-11-16T12:07:57.129Z,7.50
2022-11-16T12:10:24.021Z,7.40
2022-11-16T12:12:57.118Z,7.40
2022-11-16T12:15:46.321Z,7.40
2022-11-16T12:18:16.403Z,7.30
2022-11-16T12:21:01.512Z,7.30
2022-11-16T12:23:31.789Z,7.30
2022-11-16T12:26:00.283Z,7.30
2022-11-16T12:28:39.269Z,7.30
2022-11-16T12:31:24.948Z,7.30
2022-11-16T12:33:54.912Z,7.30
2022-11-16T12:36:25.498Z,7.40
2022-11-16T12:38:59.026Z,7.40
2022-11-16T12:41:29.130Z,7.40
2022-11-16T12:44:03.320Z,7.40
2022-11-16T12:46:30.389Z,7.30
2022-11-16T12:49:04.433Z,7.30
2022-11-16T12:51:41.748Z,7.30
2022-11-16T12:54:21.823Z,7.30
2022-11-16T12:56:54.703Z,7.20
2022-11-16T12:59:27.094Z,7.20
2022-11-16T13:02:12.813Z,7.20
2022-11-16T13:04:43.661Z,7.20
2022-11-16T13:07:30.914Z,7.20
2022-11-16T13:10:00.578Z,7.10
2022-11-16T13:12:27.506Z,7.10
2022-11-16T13:14:54.742Z,7.10
2022-11-16T13:17:25.776Z,7.00
2022-11-16T13:20:15.042Z,7.00
2022-11-16T13:22:44.968Z,7.10
2022-11-16T13:25:16.208Z,7.00
2022-11-16T13:28:15.336Z,7.00
2022-11-16T13:31:11.849Z,7.00
2022-11-16T13:33:51.375Z,7.00
2022-11-16T13:36:43.595Z,7.00
2022-11-16T13:39:22.887Z,7.00
2022-11-16T13:41:50.737Z,7.00
2022-11-16T13:44:20.638Z,7.00
2022-11-16T13:46:56.506Z,7.00
2022-11-16T13:49:34.399Z,7.00
2022-11-16T13:52:21.913Z,7.00
2022-11-16T13:54:54.171Z,7.00
2022-11-16T13:57:21.665Z,7.00
2022-11-16T13:59:49.115Z,7.00
2022-11-16T14:02:32.128Z,6.90
2022-11-16T14:05:03.309Z,6.90
2022-11-16T14:07:33.398Z,6.90
2022-11-16T14:10:00.548Z,6.90
2022-11-16T14:12:45.619Z,6.90
2022-11-16T14:15:22.095Z,6.90
2022-11-16T14:17:50.007Z,6.90
2022-11-16T14:20:23.881Z,7.00
2022-11-16T14:22:50.866Z,7.00
2022-11-16T14:25:20.738Z,6.90
2022-11-16T14:27:53.305Z,6.90
2022-11-16T14:30:26.654Z,6.90
2022-11-16T14:32:54.006Z,6.90
2022-11-16T14:35:39.556Z,6.90
2022-11-16T14:38:07.499Z,6.90
2022-11-16T14:40:36.288Z,6.90
2022-11-16T14:43:21.536Z,6.90
2022-11-16T14:45:49.334Z,6.90
2022-11-16T14:48:17.522Z,7.00
2022-11-16T14:50:45.169Z,6.90
2022-11-16T14:53:13.561Z,6.90
2022-11-16T14:55:41.204Z,7.00
2022-11-16T14:58:08.873Z,7.00
2022-11-16T15:00:35.868Z,7.00
2022-11-16T15:03:03.232Z,7.00
2022-11-16T15:05:33.082Z,6.90
2022-11-16T15:08:00.031Z,6.90
2022-11-16T15:10:27.611Z,7.00
2022-11-16T15:12:55.150Z,7.00
2022-11-16T15:15:22.200Z,6.90
2022-11-16T15:17:53.356Z,7.00
2022-11-16T15:20:21.447Z,7.00
2022-11-16T15:22:48.928Z,7.00
2022-11-16T15:25:34.759Z,6.90
2022-11-16T15:28:02.840Z,6.90
2022-11-16T15:30:37.257Z,6.90
2022-11-16T15:33:08.499Z,6.90
2022-11-16T15:35:35.862Z,6.90
2022-11-16T15:38:14.053Z,6.90
2022-11-16T15:40:41.714Z,6.90
2022-11-16T15:43:10.220Z,6.90
2022-11-16T15:45:37.575Z,6.90
2022-11-16T15:48:05.052Z,6.90
2022-11-16T15:50:32.020Z,6.90
2022-11-16T15:52:59.924Z,6.90
2022-11-16T15:55:28.842Z,6.90
2022-11-16T15:57:59.434Z,6.90
2022-11-16T16:00:26.568Z,6.80
2022-11-16T16:02:54.381Z,6.80
2022-11-16T16:05:37.305Z,6.80
2022-11-16T16:08:05.779Z,6.80
2022-11-16T16:10:32.937Z,6.80
2022-11-16T16:13:00.290Z,6.80
2022-11-16T16:15:31.156Z,6.80
2022-11-16T16:17:58.230Z,6.80
2022-11-16T16:20:25.806Z,6.80
2022-11-16T16:22:52.798Z,6.80
2022-11-16T16:25:28.843Z,6.80
2022-11-16T16:27:55.892Z,6.80
2022-11-16T16:30:22.905Z,6.80
2022-11-16T16:32:50.499Z,6.80
2022-11-16T16:35:18.274Z,6.80
2022-11-16T16:37:45.311Z,6.80
2022-11-16T16:40:12.313Z,6.70
2022-11-16T16:42:40.940Z,6.70
2022-11-16T16:45:10.855Z,6.70
2022-11-16T16:47:37.803Z,6.70
2022-11-16T16:50:04.847Z,6.70
2022-11-16T16:52:32.106Z,6.70
2022-11-16T16:54:59.064Z,6.70
2022-11-16T16:57:25.996Z,6.70
2022-11-16T16:59:53.348Z,6.70
2022-11-16T17:02:20.291Z,6.70
2022-11-16T17:04:48.528Z,6.70
2022-11-16T17:07:15.867Z,6.70
2022-11-16T17:09:43.109Z,6.70
2022-11-16T17:12:11.044Z,6.70
2022-11-16T17:14:37.987Z,6.70
2022-11-16T17:17:04.893Z,6.70
2022-11-16T17:19:31.886Z,6.70
2022-11-16T17:22:00.081Z,6.70
2022-11-16T17:24:27.024Z,6.70
2022-11-16T17:26:53.948Z,6.70
2022-11-16T17:29:20.900Z,6.60
2022-11-16T17:31:48.055Z,6.70
2022-11-16T17:34:14.968Z,6.70
2022-11-16T17:36:42.343Z,6.70
2022-11-16T17:39:09.290Z,6.70
2022-11-16T17:41:36.253Z,6.70
2022-11-16T17:44:03.291Z,6.70
2022-11-16T17:46:30.177Z,6.70
2022-11-16T17:48:57.209Z,6.70
2022-11-16T17:51:24.944Z,6.80
2022-11-16T17:53:52.105Z,6.80
2022-11-16T17:56:20.817Z,6.70
2022-11-16T17:58:50.132Z,6.70
2022-11-16T18:01:17.297Z,6.70
2022-11-16T18:03:44.380Z,6.70
2022-11-16T18:06:13.496Z,6.70
2022-11-16T18:08:40.622Z,6.70
2022-11-16T18:11:22.415Z,6.70
2022-11-16T18:14:07.615Z,6.70
2022-11-16T18:16:34.778Z,6.70
2022-11-16T18:19:05.325Z,6.70
2022-11-16T18:21:33.854Z,6.70
2022-11-16T18:24:00.907Z,6.70
2022-11-16T18:26:27.953Z,6.70
2022-11-16T18:28:54.964Z,6.70
2022-11-16T18:31:22.396Z,6.70
2022-11-16T18:33:49.520Z,6.70
2022-11-16T18:36:16.613Z,6.70
2022-11-16T18:38:43.665Z,6.70
2022-11-16T18:41:13.649Z,6.70
2022-11-16T18:43:50.308Z,6.70
2022-11-16T18:46:17.779Z,6.70
2022-11-16T18:48:46.663Z,6.70
2022-11-16T18:51:14.000Z,6.70
2022-11-16T18:53:40.939Z,6.70
2022-11-16T18:56:08.228Z,6.70
2022-11-16T18:58:49.767Z,6.70
2022-11-16T19:01:18.413Z,6.70
2022-11-16T19:03:45.476Z,6.70
2022-11-16T19:06:12.521Z,6.60
2022-11-16T19:08:40.285Z,6.60
2022-11-16T19:11:11.644Z,6.60
2022-11-16T19:13:39.031Z,6.60
2022-11-16T19:16:06.400Z,6.60
2022-11-16T19:18:33.399Z,6.70
2022-11-16T19:21:07.342Z,6.60
2022-11-16T19:23:37.861Z,6.60
2022-11-16T19:26:05.038Z,6.50
2022-11-16T19:28:38.115Z,6.60
2022-11-16T19:31:08.096Z,6.50
2022-11-16T19:33:35.391Z,6.50
2022-11-16T19:36:09.006Z,6.50
2022-11-16T19:38:36.096Z,6.60
2022-11-16T19:41:03.197Z,6.50
2022-11-16T19:43:30.334Z,6.50
2022-11-16T19:46:01.379Z,6.50
2022-11-16T19:48:28.327Z,6.50
2022-11-16T19:50:55.330Z,6.50
2022-11-16T19:57:03.502Z,6.50
2022-11-16T19:59:49.110Z,6.50
2022-11-16T20:02:16.164Z,6.50
2022-11-16T20:08:24.837Z,6.50
2022-11-16T20:10:51.825Z,6.40
2022-11-16T20:13:18.855Z,6.40
2022-11-16T20:15:45.755Z,6.50
2022-11-16T20:18:12.736Z,6.40
2022-11-16T20:24:23.214Z,6.50
2022-11-16T20:30:30.868Z,6.50
2022-11-16T20:36:38.800Z,6.40
2022-11-16T20:42:47.150Z,6.50
2022-11-16T20:45:14.284Z,6.50
2022-11-16T20:47:41.437Z,6.50
2022-11-16T20:50:08.604Z,6.50
2022-11-16T20:52:41.134Z,6.50
2022-11-16T20:55:09.846Z,6.50
2022-11-16T20:57:37.251Z,6.50
2022-11-16T21:00:05.176Z,6.50
2022-11-16T21:02:32.174Z,6.50
2022-11-16T21:05:00.565Z,6.50
2022-11-16T21:07:28.362Z,6.50
2022-11-16T21:10:13.880Z,6.40
2022-11-16T21:12:59.450Z,6.40
2022-11-16T21:15:26.405Z,6.40
2022-11-16T21:17:53.262Z,6.40
2022-11-16T21:20:27.350Z,6.30
2022-11-16T21:22:55.238Z,6.30
2022-11-16T21:25:22.264Z,6.30
2022-11-16T21:27:49.205Z,6.30
2022-11-16T21:30:16.359Z,6.30
2022-11-16T21:32:43.352Z,6.30
2022-11-16T21:35:10.441Z,6.20
2022-11-16T21:37:37.395Z,6.20
2022-11-16T21:40:04.431Z,6.20
2022-11-16T21:42:31.477Z,6.20
2022-11-16T21:44:58.376Z,6.10
2022-11-16T21:47:25.705Z,6.10
2022-11-16T21:50:24.759Z,6.10
2022-11-16T21:52:39.744Z,6.10
2022-11-16T21:55:06.897Z,6.10
2022-11-16T21:57:33.970Z,6.10
2022-11-16T22:00:01.221Z,6.10
2022-11-16T22:02:38.441Z,6.10
2022-11-16T22:05:23.880Z,6.00
2022-11-16T22:07:50.824Z,6.00
2022-11-16T22:10:17.890Z,6.00
2022-11-16T22:12:44.839Z,6.00
2022-11-16T22:15:11.881Z,6.00
2022-11-16T22:17:44.833Z,6.00
2022-11-16T22:20:11.833Z,6.00
2022-11-16T22:22:38.982Z,6.00
2022-11-16T22:25:06.494Z,6.00
2022-11-16T22:27:38.555Z,6.00
2022-11-16T22:30:19.269Z,6.00
2022-11-16T22:32:46.225Z,6.00
2022-11-16T22:35:13.216Z,6.00
2022-11-16T22:37:40.265Z,6.00
2022-11-16T22:40:07.413Z,5.90
2022-11-16T22:42:36.868Z,5.80
2022-11-16T22:45:04.023Z,5.80
2022-11-16T22:47:31.023Z,5.90
2022-11-16T22:49:57.992Z,5.90
2022-11-16T22:52:24.855Z,5.80
2022-11-16T22:54:51.749Z,5.80
2022-11-16T22:57:18.909Z,5.80
2022-11-16T22:59:45.786Z,5.80
2022-11-16T23:02:12.757Z,5.80
2022-11-16T23:04:39.743Z,5.70
2022-11-16T23:07:06.657Z,5.70
2022-11-16T23:09:34.504Z,5.70
2022-11-16T23:12:21.391Z,5.70
2022-11-16T23:15:07.067Z,5.70
2022-11-16T23:17:34.018Z,5.70
2022-11-16T23:20:19.559Z,5.70
2022-11-16T23:23:05.061Z,5.70
2022-11-16T23:25:50.648Z,5.70
2022-11-16T23:28:17.594Z,5.60
2022-11-16T23:30:44.530Z,5.60
2022-11-16T23:33:11.625Z,5.60
2022-11-16T23:35:38.481Z,5.70
2022-11-16T23:38:06.146Z,5.70
2022-11-16T23:40:33.854Z,5.70
2022-11-16T23:43:19.415Z,5.60
2022-11-16T23:45:46.326Z,5.70
2022-11-16T23:48:13.940Z,5.70
2022-11-16T23:50:40.949Z,5.60
2022-11-16T23:53:08.243Z,5.50
2022-11-16T23:55:35.594Z,5.50
2022-11-16T23:58:02.506Z,5.50
